Time;durP1;ratioP1;P1;durP2;ratioP2;P2;SDS_P1;SDS_P2;PMS_P1;PMS_P2;Temp;Humidity;BMP_temperature;BMP_pressure;BME280_temperature;BME280_humidity;BME280_pressure;Samples;Min_cycle;Max_cycle;Signal;HPM_P1;HPM_P2
2022/10/09 00:02:15;;;;;;;4.70;0.80;;;;;;;10.10;84.77;101035.47;103199;1307;25525;-56
2022/10/09 00:04:46;;;;;;;6.40;1.10;;;;;;;10.07;84.85;101040.45;103049;1287;24403;-56
2022/10/09 00:07:17;;;;;;;8.60;1.30;;;;;;;10.03;84.88;101037.58;103096;1306;22494;-57
2022/10/09 00:09:50;;;;;;;5.30;1.10;;;;;;;9.99;85.16;101043.60;103281;1301;22697;-56
2022/10/09 00:12:21;;;;;;;11.50;1.10;;;;;;;9.97;85.36;101044.25;103076;1282;24549;-56
2022/10/09 00:14:52;;;;;;;6.00;1.20;;;;;;;9.96;85.39;101048.83;103122;1282;22874;-58
2022/10/09 00:17:24;;;;;;;11.50;1.60;;;;;;;9.95;85.71;101050.23;103018;1290;22474;-55
2022/10/09 00:19:55;;;;;;;8.60;1.10;;;;;;;9.93;85.79;101051.86;103203;1288;22523;-58
2022/10/09 00:22:26;;;;;;;6.30;1.00;;;;;;;9.91;85.69;101048.61;103209;1307;22678;-56
2022/10/09 00:24:57;;;;;;;17.10;1.50;;;;;;;9.89;85.85;101048.77;103252;1289;22469;-56
2022/10/09 00:27:29;;;;;;;7.50;1.50;;;;;;;9.85;85.86;101050.35;103413;1275;24712;-55
2022/10/09 00:30:01;;;;;;;11.10;1.60;;;;;;;9.81;86.01;101054.89;103346;1282;24452;-53
2022/10/09 00:32:32;;;;;;;9.40;1.80;;;;;;;9.76;86.03;101055.84;103221;1309;25191;-57
2022/10/09 00:35:06;;;;;;;6.90;1.20;;;;;;;9.74;86.07;101057.52;103179;1305;22719;-57
2022/10/09 00:37:38;;;;;;;10.80;1.70;;;;;;;9.70;86.04;101054.72;103022;1289;24240;-58
2022/10/09 00:40:10;;;;;;;9.70;1.40;;;;;;;9.66;85.97;101057.81;103154;1283;22591;-55
2022/10/09 00:42:44;;;;;;;9.40;1.60;;;;;;;9.61;86.18;101063.48;103234;1306;22484;-55
2022/10/09 00:45:21;;;;;;;12.70;1.30;;;;;;;9.57;86.10;101065.30;103039;1282;25310;-56
2022/10/09 00:47:56;;;;;;;8.70;1.20;;;;;;;9.54;86.44;101066.23;103104;1293;22711;-57
2022/10/09 00:50:32;;;;;;;17.70;2.50;;;;;;;9.50;86.46;101069.95;103158;1281;22466;-56
2022/10/09 00:53:03;;;;;;;13.50;2.00;;;;;;;9.46;86.47;101068.11;103083;1288;22893;-58
2022/10/09 00:55:37;;;;;;;9.30;1.50;;;;;;;9.42;86.44;101073.27;103102;1281;22744;-57
2022/10/09 00:58:09;;;;;;;11.00;1.60;;;;;;;9.39;86.58;101070.56;102965;1306;22680;-55
2022/10/09 01:00:42;;;;;;;8.40;1.40;;;;;;;9.36;86.71;101074.34;102979;1283;22712;-56
2022/10/09 01:03:14;;;;;;;6.90;1.00;;;;;;;9.32;86.85;101070.74;103193;1281;22462;-57
2022/10/09 01:05:58;;;;;;;7.10;1.60;;;;;;;9.30;86.90;101076.05;103224;1298;22551;-54
2022/10/09 01:08:38;;;;;;;5.70;1.10;;;;;;;9.29;86.78;101074.13;103045;1282;22648;-58
2022/10/09 01:11:17;;;;;;;8.50;1.40;;;;;;;9.26;86.96;101071.99;103020;1306;22458;-55
2022/10/09 01:13:53;;;;;;;11.40;1.30;;;;;;;9.24;86.87;101078.35;103013;1285;22466;-57
2022/10/09 01:16:29;;;;;;;12.90;1.60;;;;;;;9.21;86.81;101081.00;103048;1282;22528;-56
2022/10/09 01:19:06;;;;;;;8.20;1.40;;;;;;;9.19;86.96;101081.29;103056;1297;23587;-57
2022/10/09 01:21:44;;;;;;;6.90;1.40;;;;;;;9.17;86.93;101085.42;103157;1292;26456;-58
2022/10/09 01:24:25;;;;;;;9.70;1.30;;;;;;;9.14;86.81;101088.65;103030;1281;22551;-57
2022/10/09 01:27:00;;;;;;;;;;;;;;;9.10;87.01;101088.70;103099;1306;23030;-57
2022/10/09 01:29:38;;;;;;;7.90;1.30;;;;;;;9.06;86.97;101090.09;103208;1284;25558;-54
2022/10/09 01:32:11;;;;;;;7.30;1.20;;;;;;;9.04;86.99;101095.17;103069;1281;25070;-57
2022/10/09 01:34:46;;;;;;;9.30;1.20;;;;;;;9.02;87.02;101092.46;103135;1307;22470;-56
2022/10/09 01:37:20;;;;;;;4.70;1.00;;;;;;;9.01;87.16;101096.64;103053;1306;22512;-56
2022/10/09 01:39:52;;;;;;;8.50;1.20;;;;;;;8.99;87.14;101099.56;102924;1298;23355;-55
2022/10/09 01:42:26;;;;;;;6.50;1.90;;;;;;;8.97;87.19;101102.05;103065;1289;24269;-56
2022/10/09 01:44:57;;;;;;;8.10;1.90;;;;;;;8.96;87.18;101100.02;103166;1295;25358;-57
2022/10/09 01:47:28;;;;;;;11.30;1.30;;;;;;;8.94;87.29;101101.06;103283;1274;22467;-57
2022/10/09 01:50:07;;;;;;;7.90;1.20;;;;;;;8.92;87.37;101101.05;103051;1282;22615;-56
2022/10/09 01:52:48;;;;;;;9.10;1.50;;;;;;;8.91;87.38;101103.23;103056;1282;22473;-56
2022/10/09 01:55:34;;;;;;;10.20;1.50;;;;;;;8.89;87.29;101104.01;103213;1306;25563;-56
2022/10/09 01:58:11;;;;;;;9.40;1.50;;;;;;;8.89;87.49;101105.13;103235;1281;22735;-56
2022/10/09 02:00:47;;;;;;;11.40;1.50;;;;;;;8.90;87.42;101110.67;103323;1289;24375;-56
2022/10/09 02:03:19;;;;;;;7.20;1.30;;;;;;;8.88;87.51;101114.53;103029;1275;25204;-57
2022/10/09 02:05:54;;;;;;;8.80;1.20;;;;;;;8.89;87.81;101116.11;102981;1306;22465;-56
2022/10/09 02:08:26;;;;;;;11.40;1.40;;;;;;;8.88;87.48;101116.03;103180;1275;25549;-58
2022/10/09 02:11:01;;;;;;;7.00;1.00;;;;;;;8.86;87.54;101119.70;103139;1281;25438;-56
2022/10/09 02:13:35;;;;;;;7.30;1.10;;;;;;;8.85;87.51;101121.82;103134;1281;22465;-56
2022/10/09 02:16:16;;;;;;;12.70;1.50;;;;;;;8.83;87.60;101126.31;103077;1283;25261;-56
2022/10/09 02:18:50;;;;;;;5.10;0.90;;;;;;;8.81;87.60;101121.55;103016;1304;22474;-57
2022/10/09 02:21:27;;;;;;;7.00;1.20;;;;;;;8.81;87.72;101129.65;103103;1303;23231;-57
2022/10/09 02:24:01;;;;;;;6.30;1.10;;;;;;;8.79;87.61;101134.87;103139;1307;22474;-57
2022/10/09 02:26:33;;;;;;;11.30;1.30;;;;;;;8.78;87.49;101133.95;103200;1276;25466;-56
2022/10/09 02:29:05;;;;;;;11.10;1.20;;;;;;;8.77;87.62;101139.81;103100;1282;25241;-55
2022/10/09 02:31:39;;;;;;;4.90;1.00;;;;;;;8.75;87.59;101137.80;103026;1282;25366;-57
2022/10/09 02:34:12;;;;;;;10.50;1.50;;;;;;;8.73;87.53;101141.02;102893;1274;22466;-57
2022/10/09 02:36:44;;;;;;;10.50;1.40;;;;;;;8.70;87.58;101146.45;103081;1282;23075;-56
2022/10/09 02:39:15;;;;;;;8.60;1.20;;;;;;;8.69;87.56;101150.85;103084;1281;22649;-56
2022/10/09 02:41:47;;;;;;;9.50;1.00;;;;;;;8.67;87.58;101154.41;103027;1306;23829;-56
2022/10/09 02:44:18;;;;;;;10.20;1.50;;;;;;;8.64;87.54;101156.58;103081;1306;22533;-55
2022/10/09 02:46:53;;;;;;;10.60;1.50;;;;;;;8.62;87.52;101158.48;103112;1289;22480;-55
2022/10/09 02:49:25;;;;;;;8.20;1.10;;;;;;;8.59;87.54;101162.15;103065;1307;22468;-57
2022/10/09 02:51:56;;;;;;;13.10;1.20;;;;;;;8.55;87.69;101164.50;103276;1278;24304;-57
2022/10/09 02:54:27;;;;;;;7.40;1.10;;;;;;;8.50;87.65;101165.83;102977;1275;24504;-57
2022/10/09 02:56:58;;;;;;;8.40;1.40;;;;;;;8.47;87.68;101170.36;103085;1306;22469;-57
2022/10/09 02:59:30;;;;;;;7.60;1.50;;;;;;;8.44;87.61;101172.45;103244;1282;24436;-57
2022/10/09 03:02:02;;;;;;;5.60;1.20;;;;;;;8.41;87.62;101173.80;102933;1306;22510;-53
2022/10/09 03:04:35;;;;;;;8.00;1.30;;;;;;;8.37;87.61;101180.13;103078;1282;22476;-54
2022/10/09 03:07:07;;;;;;;8.20;1.40;;;;;;;8.33;87.78;101177.92;103005;1278;25362;-55
2022/10/09 03:09:39;;;;;;;6.50;1.00;;;;;;;8.32;87.92;101185.23;103153;1274;24237;-57
2022/10/09 03:12:10;;;;;;;7.80;1.20;;;;;;;8.29;88.06;101180.05;103011;1282;25307;-57
2022/10/09 03:14:42;;;;;;;6.00;1.60;;;;;;;8.28;88.03;101181.42;103086;1303;24307;-56
2022/10/09 03:17:13;;;;;;;7.10;1.10;;;;;;;8.27;88.11;101184.95;103020;1284;25334;-56
2022/10/09 03:19:45;;;;;;;7.90;1.10;;;;;;;8.26;88.03;101189.19;103010;1274;25557;-57
2022/10/09 03:22:17;;;;;;;6.60;1.20;;;;;;;8.24;87.93;101193.67;103036;1287;22935;-57
2022/10/09 03:24:48;;;;;;;10.30;1.40;;;;;;;8.20;87.97;101191.94;103112;1284;24377;-57
2022/10/09 03:27:19;;;;;;;7.00;1.40;;;;;;;8.18;87.94;101197.23;103021;1303;22462;-58
2022/10/09 03:29:51;;;;;;;7.30;1.30;;;;;;;8.17;88.01;101198.02;103039;1306;22492;-57
2022/10/09 03:32:23;;;;;;;11.30;1.90;;;;;;;8.14;88.15;101203.00;103019;1287;22586;-58
2022/10/09 03:34:54;;;;;;;6.40;1.10;;;;;;;8.12;88.15;101204.40;102989;1300;22602;-56
2022/10/09 03:37:26;;;;;;;8.10;1.80;;;;;;;8.10;88.08;101210.16;103094;1300;22466;-58
2022/10/09 03:39:57;;;;;;;7.30;1.20;;;;;;;8.08;88.01;101217.62;103135;1281;25426;-56
2022/10/09 03:42:29;;;;;;;6.20;1.10;;;;;;;8.06;88.00;101218.54;103147;1305;24383;-57
2022/10/09 03:45:03;;;;;;;8.40;1.40;;;;;;;8.04;87.96;101222.02;103092;1281;22475;-57
2022/10/09 03:47:35;;;;;;;7.70;1.20;;;;;;;8.02;88.05;101226.63;103283;1288;22932;-55
2022/10/09 03:50:08;;;;;;;8.60;1.40;;;;;;;7.98;88.02;101224.25;103192;1306;24270;-58
2022/10/09 03:52:39;;;;;;;9.90;1.40;;;;;;;7.95;88.00;101221.88;103138;1307;22861;-57
2022/10/09 03:55:11;;;;;;;7.60;1.60;;;;;;;7.92;87.98;101219.65;102995;1283;22470;-56
2022/10/09 03:57:42;;;;;;;6.20;1.20;;;;;;;7.90;88.11;101220.11;103039;1281;25290;-57
2022/10/09 04:00:15;;;;;;;7.50;1.70;;;;;;;7.86;88.21;101225.85;103207;1277;25270;-57
2022/10/09 04:02:47;;;;;;;6.50;1.00;;;;;;;7.83;88.24;101228.30;103059;1302;22473;-58
2022/10/09 04:05:19;;;;;;;5.80;1.10;;;;;;;7.80;88.48;101232.75;103055;1289;25299;-57
2022/10/09 04:07:51;;;;;;;9.70;1.30;;;;;;;7.78;88.62;101234.79;103099;1281;22478;-57
2022/10/09 04:10:22;;;;;;;8.00;1.20;;;;;;;7.77;88.63;101233.46;103185;1306;22477;-58
2022/10/09 04:12:53;;;;;;;9.20;1.10;;;;;;;7.76;88.65;101235.65;103064;1282;25366;-56
2022/10/09 04:15:25;;;;;;;12.90;1.40;;;;;;;7.75;88.70;101243.20;103029;1306;22531;-56
2022/10/09 04:17:56;;;;;;;9.70;1.30;;;;;;;7.75;88.61;101249.41;103110;1304;22489;-56
2022/10/09 04:20:28;;;;;;;6.80;1.30;;;;;;;7.73;88.76;101256.28;103069;1282;22699;-56
2022/10/09 04:22:59;;;;;;;7.80;1.20;;;;;;;7.70;88.78;101253.58;103125;1287;22484;-58
2022/10/09 04:25:30;;;;;;;8.00;1.20;;;;;;;7.69;88.89;101255.75;103146;1279;25353;-56
2022/10/09 04:28:03;;;;;;;6.80;1.00;;;;;;;7.68;89.04;101251.17;103113;1306;22488;-56
2022/10/09 04:30:34;;;;;;;8.90;1.00;;;;;;;7.67;89.05;101250.33;103106;1289;25323;-57
2022/10/09 04:33:05;;;;;;;8.40;1.20;;;;;;;7.65;88.88;101256.33;103087;1299;22484;-58
2022/10/09 04:35:41;;;;;;;8.20;1.40;;;;;;;7.64;88.83;101258.73;103218;1299;22472;-56
2022/10/09 04:38:12;;;;;;;12.40;1.40;;;;;;;7.61;88.85;101262.21;102988;1279;25366;-57
2022/10/09 04:40:43;;;;;;;6.30;0.90;;;;;;;7.61;88.90;101265.65;103169;1282;22486;-58
2022/10/09 04:43:15;;;;;;;9.40;1.30;;;;;;;7.58;88.78;101262.77;103084;1275;23245;-56
2022/10/09 04:45:46;;;;;;;11.80;1.60;;;;;;;7.57;88.94;101260.42;103201;1284;22523;-55
2022/10/09 04:48:18;;;;;;;10.40;1.20;;;;;;;7.54;88.85;101265.41;103237;1293;22590;-56
2022/10/09 04:50:50;;;;;;;7.10;1.20;;;;;;;7.52;88.88;101262.05;103294;1287;22490;-57
2022/10/09 04:53:22;;;;;;;9.20;1.30;;;;;;;7.51;89.15;101263.66;102906;1290;24368;-59
2022/10/09 04:55:55;;;;;;;8.10;1.10;;;;;;;7.49;89.23;101262.49;103036;1282;26248;-56
2022/10/09 04:58:26;;;;;;;9.70;1.30;;;;;;;7.50;89.27;101270.19;103154;1297;25341;-57
2022/10/09 05:00:58;;;;;;;9.50;0.90;;;;;;;7.49;89.29;101269.81;103082;1283;25430;-56
2022/10/09 05:03:30;;;;;;;6.00;1.10;;;;;;;7.49;89.32;101271.07;103107;1298;26269;-56
2022/10/09 05:06:04;;;;;;;8.20;1.80;;;;;;;7.50;89.45;101277.17;103274;1278;22608;-54
2022/10/09 05:08:37;;;;;;;5.50;1.40;;;;;;;7.51;89.48;101280.56;103079;1287;25438;-55
2022/10/09 05:11:10;;;;;;;10.20;1.20;;;;;;;7.52;89.42;101281.34;102947;1282;24038;-56
2022/10/09 05:13:43;;;;;;;16.00;1.50;;;;;;;7.52;89.28;101281.73;103004;1306;24385;-57
2022/10/09 05:16:18;;;;;;;9.20;1.10;;;;;;;7.52;89.27;101286.96;103199;1306;22477;-56
2022/10/09 05:18:52;;;;;;;7.40;1.10;;;;;;;7.51;89.23;101292.79;103224;1273;25327;-54
2022/10/09 05:21:27;;;;;;;9.60;1.40;;;;;;;7.51;89.30;101289.07;103163;1295;22624;-55
2022/10/09 05:23:59;;;;;;;9.60;1.10;;;;;;;7.50;89.18;101290.11;102950;1305;22466;-58
2022/10/09 05:26:33;;;;;;;10.50;1.40;;;;;;;7.49;89.22;101296.10;103076;1283;25372;-54
2022/10/09 05:29:07;;;;;;;11.60;1.30;;;;;;;7.48;89.39;101294.52;103140;1275;22689;-53
2022/10/09 05:31:38;;;;;;;6.70;1.10;;;;;;;7.46;89.20;101297.26;103009;1282;25318;-55
2022/10/09 05:34:10;;;;;;;7.80;1.00;;;;;;;7.45;89.31;101293.56;103036;1282;22450;-55
2022/10/09 05:36:41;;;;;;;10.70;1.30;;;;;;;7.45;89.36;101292.29;103210;1282;22477;-56
2022/10/09 05:39:13;;;;;;;11.00;1.40;;;;;;;7.45;89.54;101299.21;103072;1281;24433;-56
2022/10/09 05:41:45;;;;;;;8.50;1.20;;;;;;;7.46;89.63;101301.64;103034;1278;25389;-56
2022/10/09 05:44:17;;;;;;;7.80;1.00;;;;;;;7.48;89.55;101311.20;102922;1282;24978;-55
2022/10/09 05:46:49;;;;;;;6.70;1.40;;;;;;;7.48;89.50;101315.09;103118;1306;22526;-55
2022/10/09 05:49:21;;;;;;;8.80;1.20;;;;;;;7.48;89.67;101322.78;103031;1306;22617;-57
2022/10/09 05:51:52;;;;;;;11.80;1.60;;;;;;;7.49;89.85;101320.71;103031;1275;24429;-55
2022/10/09 05:54:23;;;;;;;11.60;1.40;;;;;;;7.49;89.80;101321.25;102970;1275;22465;-56
2022/10/09 05:56:55;;;;;;;9.70;1.40;;;;;;;7.51;89.94;101322.02;103092;1287;22472;-57
2022/10/09 05:59:26;;;;;;;9.40;1.30;;;;;;;7.52;90.03;101322.38;103376;1282;22945;-55
2022/10/09 06:01:58;;;;;;;13.70;1.60;;;;;;;7.53;90.23;101325.92;103062;1282;22585;-56
2022/10/09 06:04:29;;;;;;;9.60;1.80;;;;;;;7.56;90.37;101326.34;102959;1299;22457;-56
2022/10/09 06:07:01;;;;;;;11.80;1.30;;;;;;;7.57;90.39;101331.48;103064;1278;22475;-56
2022/10/09 06:09:32;;;;;;;12.40;1.70;;;;;;;7.59;90.47;101331.89;103095;1274;22471;-57
2022/10/09 06:12:04;;;;;;;12.40;1.60;;;;;;;7.62;90.53;101339.69;103103;1297;22590;-58
2022/10/09 06:14:35;;;;;;;10.30;1.40;;;;;;;7.64;90.67;101341.69;102998;1300;23132;-58
2022/10/09 06:17:08;;;;;;;9.80;1.60;;;;;;;7.67;90.67;101347.02;103107;1281;22526;-57
2022/10/09 06:19:39;;;;;;;13.30;1.50;;;;;;;7.71;90.78;101346.86;103219;1281;24586;-57
2022/10/09 06:22:11;;;;;;;8.90;1.80;;;;;;;7.74;90.86;101351.79;103117;1289;22483;-56
2022/10/09 06:24:43;;;;;;;8.80;1.20;;;;;;;7.78;90.87;101352.80;103100;1298;22468;-55
2022/10/09 06:27:14;;;;;;;8.90;1.50;;;;;;;7.82;90.78;101358.05;103103;1281;23828;-56
2022/10/09 06:29:46;;;;;;;8.30;1.10;;;;;;;7.86;90.99;101362.95;103190;1282;26495;-57
2022/10/09 06:32:17;;;;;;;10.50;1.50;;;;;;;7.91;90.83;101364.65;103208;1306;22590;-58
2022/10/09 06:34:48;;;;;;;10.40;1.60;;;;;;;7.95;90.93;101366.77;103078;1275;22692;-57
2022/10/09 06:37:56;;;;;;;11.80;1.50;;;;;;;8.03;90.97;101373.88;100587;1341;545097;-74
2022/10/09 06:40:28;;;;;;;7.80;1.30;;;;;;;8.06;90.91;101370.23;103304;1306;22496;-74
2022/10/09 06:42:59;;;;;;;8.60;1.10;;;;;;;8.11;90.89;101369.88;102890;1290;25612;-74
2022/10/09 06:45:30;;;;;;;8.10;0.90;;;;;;;8.17;90.90;101379.13;102899;1293;23509;-74
2022/10/09 06:48:02;;;;;;;8.20;1.30;;;;;;;8.22;90.83;101381.77;103510;1303;22503;-74
2022/10/09 06:50:37;;;;;;;8.50;1.10;;;;;;;8.27;90.88;101384.83;103119;1284;191055;-74
2022/10/09 06:53:08;;;;;;;9.90;1.70;;;;;;;8.33;90.70;101385.64;103714;1295;24436;-74
2022/10/09 06:55:39;;;;;;;7.10;1.10;;;;;;;8.38;90.72;101388.38;103430;1303;22602;-74
2022/10/09 06:58:10;;;;;;;6.20;1.00;;;;;;;8.44;90.84;101389.03;103509;1307;25747;-74
2022/10/09 07:00:41;;;;;;;7.70;1.20;;;;;;;8.48;90.62;101391.53;103448;1285;22487;-75
2022/10/09 07:03:14;;;;;;;7.50;1.10;;;;;;;8.54;90.53;101396.23;103410;1303;22983;-75
2022/10/09 07:05:45;;;;;;;10.00;1.30;;;;;;;8.58;90.53;101397.31;103492;1308;25069;-75
2022/10/09 07:08:16;;;;;;;14.70;1.40;;;;;;;8.65;90.77;101400.71;103463;1295;22470;-74
2022/10/09 07:10:47;;;;;;;7.90;1.10;;;;;;;8.71;90.44;101397.77;103422;1307;26664;-75
2022/10/09 07:13:19;;;;;;;7.40;1.30;;;;;;;8.76;90.49;101399.77;103488;1309;22491;-75
2022/10/09 07:15:50;;;;;;;12.10;1.50;;;;;;;8.83;90.60;101400.30;103385;1295;22499;-75
2022/10/09 07:18:22;;;;;;;18.30;1.70;;;;;;;8.89;90.62;101406.42;103799;1281;22484;-75
2022/10/09 07:20:53;;;;;;;11.70;1.50;;;;;;;8.94;90.27;101406.53;103762;1282;25237;-75
2022/10/09 07:23:27;;;;;;;12.80;1.40;;;;;;;9.00;90.26;101407.89;103760;1281;22630;-75
2022/10/09 07:26:00;;;;;;;9.20;1.40;;;;;;;9.03;89.95;101406.69;103757;1288;22469;-75
2022/10/09 07:28:31;;;;;;;11.20;1.40;;;;;;;9.08;89.77;101410.77;103816;1283;22489;-74
2022/10/09 07:31:05;;;;;;;10.40;1.40;;;;;;;9.12;89.90;101413.13;103736;1281;22466;-75
2022/10/09 07:33:37;;;;;;;16.60;1.60;;;;;;;9.17;89.68;101418.71;103785;1288;22467;-75
2022/10/09 07:36:09;;;;;;;11.70;1.40;;;;;;;9.21;89.79;101420.33;103727;1282;22482;-77
2022/10/09 07:38:40;;;;;;;10.20;1.20;;;;;;;9.27;89.85;101421.91;103800;1280;22481;-77
2022/10/09 07:41:13;;;;;;;9.10;1.60;;;;;;;9.32;89.56;101424.39;103728;1296;22905;-77
2022/10/09 07:43:44;;;;;;;9.10;1.50;;;;;;;9.37;89.47;101425.99;104544;1288;32054;-75
2022/10/09 07:46:18;;;;;;;11.60;1.20;;;;;;;9.42;89.33;101426.66;103764;1283;22506;-75
2022/10/09 07:48:49;;;;;;;7.90;1.20;;;;;;;9.44;89.06;101428.58;103891;1297;25372;-76
2022/10/09 07:51:23;;;;;;;9.90;1.30;;;;;;;9.47;89.00;101433.42;103577;1281;25198;-76
2022/10/09 07:53:56;;;;;;;13.20;1.80;;;;;;;9.51;88.97;101433.57;103599;1304;23914;-76
2022/10/09 07:56:29;;;;;;;12.90;2.20;;;;;;;9.54;88.94;101436.41;103666;1288;25320;-76
2022/10/09 07:59:01;;;;;;;8.00;1.50;;;;;;;9.58;88.92;101438.19;103677;1291;23340;-76
2022/10/09 08:01:34;;;;;;;8.50;1.40;;;;;;;9.62;88.90;101443.41;103715;1287;24423;-75
2022/10/09 08:04:06;;;;;;;7.30;1.30;;;;;;;9.66;88.71;101442.09;103688;1279;22472;-75
2022/10/09 08:06:37;;;;;;;12.40;1.20;;;;;;;9.70;88.64;101439.13;103668;1290;22492;-76
2022/10/09 08:09:09;;;;;;;8.90;1.10;;;;;;;9.73;88.53;101438.23;103642;1298;22497;-75
2022/10/09 08:11:41;;;;;;;10.40;1.60;;;;;;;9.76;88.54;101440.37;103591;1282;22566;-75
2022/10/09 08:14:14;;;;;;;8.00;1.40;;;;;;;9.82;88.56;101440.75;103713;1282;24411;-75
2022/10/09 08:16:45;;;;;;;9.50;1.20;;;;;;;9.89;88.38;101443.65;103671;1298;25325;-75
2022/10/09 08:19:16;;;;;;;10.20;1.20;;;;;;;9.94;88.49;101441.73;103598;1306;24247;-75
2022/10/09 08:21:50;;;;;;;11.50;1.40;;;;;;;10.01;88.35;101444.46;103587;1297;22488;-74
2022/10/09 08:24:22;;;;;;;9.00;1.40;;;;;;;10.06;88.16;101446.29;103641;1305;24379;-75
2022/10/09 08:26:53;;;;;;;12.00;1.40;;;;;;;10.13;88.32;101446.17;103543;1282;25466;-74
2022/10/09 08:29:24;;;;;;;7.10;1.20;;;;;;;10.19;88.14;101445.65;103604;1282;22492;-74
2022/10/09 08:31:55;;;;;;;6.20;1.30;;;;;;;10.27;88.06;101445.32;103595;1278;22554;-75
2022/10/09 08:34:26;;;;;;;12.50;1.40;;;;;;;10.32;87.89;101443.96;103628;1305;22471;-75
2022/10/09 08:36:58;;;;;;;9.60;1.00;;;;;;;10.40;87.69;101445.86;103694;1279;22479;-75
2022/10/09 08:39:29;;;;;;;5.80;1.10;;;;;;;10.49;87.72;101448.25;103579;1306;23032;-75
2022/10/09 08:42:02;;;;;;;10.40;1.20;;;;;;;10.57;87.39;101449.91;103663;1292;25299;-75
2022/10/09 08:44:39;;;;;;;12.20;1.20;;;;;;;10.63;87.34;101451.33;103767;1306;22522;-75
2022/10/09 08:47:20;;;;;;;7.50;1.20;;;;;;;10.67;86.97;101447.92;103756;1284;24263;-75
2022/10/09 08:49:56;;;;;;;11.20;2.50;;;;;;;10.70;87.06;101451.39;103656;1282;25075;-75
2022/10/09 08:52:35;;;;;;;4.60;0.70;;;;;;;10.74;86.84;101447.02;103643;1284;22466;-75
2022/10/09 08:55:16;;;;;;;8.90;0.70;;;;;;;10.79;86.69;101450.90;103627;1282;26481;-75
2022/10/09 08:57:50;;;;;;;7.70;1.60;;;;;;;10.85;86.68;101454.30;103670;1288;22518;-75
2022/10/09 09:00:23;;;;;;;7.90;1.00;;;;;;;10.90;86.38;101452.13;103875;1284;25326;-75
2022/10/09 09:03:25;;;;;;;8.80;0.70;;;;;;;10.93;86.15;101456.56;103629;1287;22478;-74
2022/10/09 09:06:03;;;;;;;11.20;1.40;;;;;;;11.00;85.94;101455.12;103764;1284;22629;-74
2022/10/09 09:08:46;;;;;;;4.00;0.60;;;;;;;11.09;85.94;101456.78;103839;1286;25357;-75
2022/10/09 09:11:34;;;;;;;15.00;1.20;;;;;;;11.17;85.41;101456.29;103742;1282;22480;-75
2022/10/09 09:14:19;;;;;;;16.60;1.60;;;;;;;11.22;85.11;101456.33;103664;1299;22480;-74
2022/10/09 09:17:02;;;;;;;6.90;0.90;;;;;;;11.27;84.57;101457.27;103667;1287;22603;-75
2022/10/09 09:19:51;;;;;;;6.60;0.60;;;;;;;11.34;83.85;101455.95;103991;1303;22647;-74
2022/10/09 09:22:24;;;;;;;9.50;0.60;;;;;;;11.44;83.93;101451.30;103608;1281;25819;-75
2022/10/09 09:24:56;;;;;;;8.10;0.70;;;;;;;11.52;83.85;101453.16;103785;1306;22584;-75
2022/10/09 09:27:32;;;;;;;9.50;0.90;;;;;;;11.57;83.35;101450.48;103606;1306;25257;-75
2022/10/09 09:30:14;;;;;;;6.70;0.50;;;;;;;11.64;82.80;101449.43;103595;1303;22506;-75
2022/10/09 09:32:54;;;;;;;9.80;0.70;;;;;;;11.68;81.87;101449.39;103630;1306;22489;-73
2022/10/09 09:35:33;;;;;;;4.20;0.30;;;;;;;11.73;82.30;101452.47;104039;1305;22480;-73
2022/10/09 09:38:06;;;;;;;6.40;0.50;;;;;;;11.79;81.88;101448.77;103596;1299;24795;-74
2022/10/09 09:40:37;;;;;;;11.00;0.80;;;;;;;11.83;81.47;101453.43;103581;1297;22529;-74
2022/10/09 09:43:18;;;;;;;5.40;0.40;;;;;;;11.86;80.70;101448.92;103745;1306;22505;-74
2022/10/09 09:45:52;;;;;;;9.50;0.60;;;;;;;11.89;80.48;101447.10;103685;1298;23226;-74
2022/10/09 09:48:35;;;;;;;7.10;0.60;;;;;;;11.93;80.06;101443.18;103574;1304;22583;-74
2022/10/09 09:51:14;;;;;;;6.90;0.60;;;;;;;11.95;80.48;101444.40;103652;1304;25514;-74
2022/10/09 09:53:50;;;;;;;6.70;0.90;;;;;;;11.99;79.92;101442.30;103509;1290;22476;-74
2022/10/09 09:56:32;;;;;;;4.00;0.60;;;;;;;12.05;79.78;101444.44;103601;1282;22577;-74
2022/10/09 09:59:04;;;;;;;9.50;0.90;;;;;;;12.09;79.97;101447.04;103790;1289;25330;-74
2022/10/09 10:01:36;;;;;;;7.10;0.50;;;;;;;12.12;80.07;101441.39;103700;1282;22479;-74
2022/10/09 10:04:26;;;;;;;6.80;0.50;;;;;;;12.20;79.15;101442.77;103690;1288;22653;-73
2022/10/09 10:06:56;;;;;;;;;;;;;;;12.25;78.20;101443.84;103663;1305;25316;-73
2022/10/09 10:09:27;;;;;;;7.40;0.40;;;;;;;12.27;77.80;101442.93;103540;1275;22527;-73
2022/10/09 10:12:02;;;;;;;4.70;0.70;;;;;;;12.27;77.30;101444.47;103520;1281;25321;-73
2022/10/09 10:14:34;;;;;;;1.90;0.30;;;;;;;12.28;77.21;101444.38;103608;1306;22624;-72
2022/10/09 10:17:06;;;;;;;7.60;0.40;;;;;;;12.27;76.64;101443.77;103574;1275;22495;-73
2022/10/09 10:19:38;;;;;;;5.80;0.70;;;;;;;12.25;76.79;101445.61;103627;1306;22609;-73
2022/10/09 10:22:25;;;;;;;6.90;0.70;;;;;;;12.26;76.70;101443.23;103686;1305;24378;-73
2022/10/09 10:24:59;;;;;;;6.60;0.60;;;;;;;12.32;76.53;101439.16;103724;1304;24307;-73
2022/10/09 10:27:33;;;;;;;7.70;0.60;;;;;;;12.32;76.24;101442.11;103726;1304;22432;-72
2022/10/09 10:30:11;;;;;;;4.90;0.50;;;;;;;12.30;76.33;101439.81;107174;1299;22228;-74
2022/10/09 10:32:51;;;;;;;5.30;0.40;;;;;;;12.27;75.88;101442.02;106031;1289;22598;-74
2022/10/09 10:35:26;;;;;;;5.00;0.40;;;;;;;12.25;75.81;101441.34;103509;1282;22613;-74
2022/10/09 10:38:05;;;;;;;8.50;0.60;;;;;;;12.27;75.90;101440.23;105400;1291;22485;-74
2022/10/09 10:40:38;;;;;;;5.10;0.40;;;;;;;12.31;76.16;101438.26;103621;1288;22606;-74
2022/10/09 10:43:33;;;;;;;10.40;0.50;;;;;;;12.34;75.65;101435.65;103751;1298;25723;-74
2022/10/09 10:46:14;;;;;;;6.30;0.50;;;;;;;12.36;76.21;101433.44;103654;1281;22511;-74
2022/10/09 10:48:47;;;;;;;6.60;0.50;;;;;;;12.42;75.90;101437.77;103636;1298;22639;-73
2022/10/09 10:51:50;;;;;;;4.20;0.50;;;;;;;12.51;74.99;101439.96;103571;1288;22710;-73
2022/10/09 10:54:39;;;;;;;5.20;0.40;;;;;;;12.65;75.04;101441.85;103363;1284;22523;-74
2022/10/09 10:57:20;;;;;;;9.70;0.60;;;;;;;12.78;73.77;101446.83;103340;1287;22510;-74
2022/10/09 11:00:04;;;;;;;9.10;0.50;;;;;;;12.88;73.30;101442.75;103309;1294;22439;-73
2022/10/09 11:03:14;;;;;;;10.50;0.90;;;;;;;12.96;73.10;101442.16;103300;1287;22497;-74
2022/10/09 11:06:01;;;;;;;8.70;1.20;;;;;;;13.05;73.17;101442.69;103227;1294;22469;-73
2022/10/09 11:08:52;;;;;;;7.70;0.60;;;;;;;13.11;72.96;101443.41;103340;1283;22538;-73
2022/10/09 11:11:32;;;;;;;3.80;0.30;;;;;;;13.16;72.55;101447.12;103543;1302;25722;-77
2022/10/09 11:14:21;;;;;;;6.00;0.50;;;;;;;13.22;72.07;101440.35;103288;1288;24369;-73
2022/10/09 11:17:06;;;;;;;7.60;0.50;;;;;;;13.29;72.12;101438.75;103180;1283;22547;-73
2022/10/09 11:19:52;;;;;;;6.50;0.60;;;;;;;13.32;72.05;101435.33;103263;1291;25492;-74
2022/10/09 11:22:39;;;;;;;2.50;0.30;;;;;;;13.32;71.08;101437.41;103289;1281;25371;-73
2022/10/09 11:25:28;;;;;;;9.00;0.30;;;;;;;13.37;69.52;101439.13;103241;1294;25668;-73
2022/10/09 11:28:07;;;;;;;5.40;0.40;;;;;;;13.41;68.74;101439.45;103371;1302;22575;-73
2022/10/09 11:30:43;;;;;;;5.70;0.30;;;;;;;13.41;68.84;101437.05;103375;1305;22872;-74
2022/10/09 11:33:30;;;;;;;5.00;0.50;;;;;;;13.38;69.22;101433.54;103734;1291;24295;-73
2022/10/09 11:36:05;;;;;;;5.30;0.40;;;;;;;13.36;69.72;101434.16;103648;1306;23148;-74
2022/10/09 11:38:42;;;;;;;5.30;0.40;;;;;;;13.35;69.32;101433.32;103714;1288;22557;-73
2022/10/09 11:41:14;;;;;;;5.10;0.60;;;;;;;13.35;69.16;101430.05;103696;1298;22484;-74
2022/10/09 11:44:07;;;;;;;8.40;0.80;;;;;;;13.36;68.68;101427.59;103738;1305;24269;-74
2022/10/09 11:46:46;;;;;;;5.30;0.30;;;;;;;13.36;68.37;101421.67;103613;1306;25252;-74
2022/10/09 11:49:26;;;;;;;5.30;0.30;;;;;;;13.36;68.08;101422.23;105422;1305;25245;-74
2022/10/09 11:52:02;;;;;;;;;;;;;;;13.36;67.81;101425.95;103714;1298;22526;-74
2022/10/09 11:54:39;;;;;;;7.20;1.00;;;;;;;13.32;67.75;101419.77;104404;1299;22475;-74
2022/10/09 11:57:11;;;;;;;4.40;0.30;;;;;;;13.32;67.67;101414.02;103568;1290;22869;-74